createdAt,value
2023-03-03T00:00:35.719Z,100836.41
2023-03-03T00:03:07.608Z,100817.59
2023-03-03T00:05:36.543Z,100827.50
2023-03-03T00:08:06.048Z,100821.84
2023-03-03T00:10:34.436Z,100815.66
2023-03-03T00:13:02.850Z,100807.38
2023-03-03T00:15:33.006Z,100811.59
2023-03-03T00:18:01.825Z,100808.13
2023-03-03T00:20:40.581Z,100805.38
2023-03-03T00:23:21.300Z,100800.09
2023-03-03T00:25:53.028Z,100808.06
2023-03-03T00:28:28.649Z,100803.78
2023-03-03T00:30:59.957Z,100797.97
2023-03-03T00:33:33.180Z,100790.75
2023-03-03T00:36:21.917Z,100788.13
2023-03-03T00:38:50.661Z,100786.84
2023-03-03T00:41:24.320Z,100786.66
2023-03-03T00:43:53.396Z,100779.16
2023-03-03T00:46:25.133Z,100775.44
2023-03-03T00:48:53.830Z,100776.81
2023-03-03T00:51:30.470Z,100774.97
2023-03-03T00:53:59.870Z,100772.25
2023-03-03T00:56:29.550Z,100766.44
2023-03-03T00:58:57.870Z,100761.66
2023-03-03T01:01:28.219Z,100760.91
2023-03-03T01:03:56.568Z,100766.22
2023-03-03T01:06:25.345Z,100762.44
2023-03-03T01:08:54.284Z,100762.22
2023-03-03T01:11:25.922Z,100751.91
2023-03-03T01:13:54.774Z,100750.81
2023-03-03T01:16:23.269Z,100746.03
2023-03-03T01:18:53.052Z,100750.00
2023-03-03T01:21:21.503Z,100741.56
2023-03-03T01:23:49.770Z,100745.72
2023-03-03T01:26:18.080Z,100736.44
2023-03-03T01:28:46.730Z,100741.28
2023-03-03T01:31:15.112Z,100741.75
2023-03-03T01:33:43.658Z,100745.25
2023-03-03T01:36:13.611Z,100736.25
2023-03-03T01:38:41.925Z,100732.81
2023-03-03T01:41:10.285Z,100729.94
2023-03-03T01:43:45.723Z,100727.53
2023-03-03T01:46:40.943Z,100728.69
2023-03-03T01:49:14.789Z,100718.69
2023-03-03T01:51:52.067Z,100715.81
2023-03-03T01:54:26.948Z,100716.03
2023-03-03T01:56:58.713Z,100715.78
2023-03-03T01:59:30.747Z,100715.88
2023-03-03T02:01:59.185Z,100724.78
2023-03-03T02:04:28.430Z,100725.56
2023-03-03T02:07:02.140Z,100727.16
2023-03-03T02:09:38.856Z,100729.31
2023-03-03T02:12:10.192Z,100720.84
2023-03-03T02:14:38.811Z,100723.16
2023-03-03T02:17:07.823Z,100726.13
2023-03-03T02:19:43.571Z,100720.84
2023-03-03T02:22:16.079Z,100721.34
2023-03-03T02:24:50.896Z,100715.47
2023-03-03T02:27:20.790Z,100713.13
2023-03-03T02:29:49.184Z,100715.78
2023-03-03T02:32:17.521Z,100715.53
2023-03-03T02:34:49.479Z,100707.00
2023-03-03T02:37:18.786Z,100715.53
2023-03-03T02:39:47.616Z,100714.38
2023-03-03T02:42:20.099Z,100717.59
2023-03-03T02:44:49.926Z,100718.13
2023-03-03T02:47:18.259Z,100720.78
2023-03-03T02:49:46.605Z,100713.06
2023-03-03T02:52:18.217Z,100727.41
2023-03-03T02:54:46.552Z,100709.41
2023-03-03T02:57:15.495Z,100715.47
2023-03-03T02:59:44.046Z,100724.28
2023-03-03T03:02:14.132Z,100714.50
2023-03-03T03:04:42.570Z,100703.31
2023-03-03T03:07:11.894Z,100709.41
2023-03-03T03:09:40.254Z,100705.88
2023-03-03T03:12:09.789Z,100705.09
2023-03-03T03:14:38.128Z,100705.88
2023-03-03T03:17:06.577Z,100697.38
2023-03-03T03:19:36.290Z,100702.94
2023-03-03T03:22:05.020Z,100699.28
2023-03-03T03:24:33.583Z,100694.16
2023-03-03T03:27:01.917Z,100691.53
2023-03-03T03:29:30.342Z,100687.38
2023-03-03T03:31:58.764Z,100699.72
2023-03-03T03:34:27.362Z,100693.63
2023-03-03T03:36:57.273Z,100687.50
2023-03-03T03:39:25.621Z,100693.56
2023-03-03T03:41:54.035Z,100690.44
2023-03-03T03:44:24.046Z,100688.25
2023-03-03T03:46:52.486Z,100679.72
2023-03-03T03:49:21.022Z,100680.81
2023-03-03T03:51:49.714Z,100677.22
2023-03-03T03:54:19.498Z,100691.81
2023-03-03T03:56:47.865Z,100686.78
2023-03-03T03:59:16.262Z,100675.16
2023-03-03T04:01:44.577Z,100674.63
2023-03-03T04:04:12.905Z,100673.25
2023-03-03T04:06:41.404Z,100672.22
2023-03-03T04:09:09.860Z,100679.59
2023-03-03T04:11:39.659Z,100667.66
2023-03-03T04:14:08.473Z,100673.50
2023-03-03T04:16:36.883Z,100662.31
2023-03-03T04:19:05.374Z,100667.91
2023-03-03T04:21:33.710Z,100660.75
2023-03-03T04:24:02.137Z,100665.31
2023-03-03T04:26:31.180Z,100668.22
2023-03-03T04:29:01.750Z,100666.00
2023-03-03T04:31:30.151Z,100665.47
2023-03-03T04:33:58.501Z,100667.66
2023-03-03T04:36:27.131Z,100654.13
2023-03-03T04:38:55.503Z,100663.16
2023-03-03T04:41:24.118Z,100659.16
2023-03-03T04:43:52.414Z,100669.16
2023-03-03T04:46:22.242Z,100665.47
2023-03-03T04:48:50.667Z,100667.72
2023-03-03T04:51:18.975Z,100665.75
2023-03-03T04:53:47.541Z,100662.91
2023-03-03T04:56:16.349Z,100666.56
2023-03-03T04:58:44.725Z,100664.22
2023-03-03T05:01:15.214Z,100661.03
2023-03-03T05:03:44.981Z,100663.38
2023-03-03T05:06:13.506Z,100671.31
2023-03-03T05:08:43.307Z,100667.91
2023-03-03T05:11:11.681Z,100666.63
2023-03-03T05:13:39.977Z,100672.19
2023-03-03T05:16:09.502Z,100671.13
2023-03-03T05:18:38.048Z,100667.72
2023-03-03T05:21:09.047Z,100666.41
2023-03-03T05:23:37.351Z,100669.28
2023-03-03T05:26:06.199Z,100671.97
2023-03-03T05:28:34.608Z,100672.50
2023-03-03T05:31:02.971Z,100673.06
2023-03-03T05:33:31.569Z,100686.28
2023-03-03T05:36:00.126Z,100681.81
2023-03-03T05:38:29.853Z,100684.22
2023-03-03T05:40:58.165Z,100679.97
2023-03-03T05:43:26.581Z,100678.41
2023-03-03T05:45:57.899Z,100679.50
2023-03-03T05:48:26.383Z,100677.94
2023-03-03T05:50:55.181Z,100684.63
2023-03-03T05:53:23.486Z,100689.34
2023-03-03T05:55:53.276Z,100695.25
2023-03-03T05:58:23.167Z,100680.16
2023-03-03T06:00:51.468Z,100685.41
2023-03-03T06:03:19.842Z,100684.34
2023-03-03T06:05:48.258Z,100694.38
2023-03-03T06:08:16.732Z,100684.88
2023-03-03T06:10:44.994Z,100677.19
2023-03-03T06:13:14.757Z,100685.97
2023-03-03T06:15:43.356Z,100681.75
2023-03-03T06:18:11.728Z,100686.00
2023-03-03T06:20:40.173Z,100673.28
2023-03-03T06:23:08.953Z,100677.28
2023-03-03T06:25:37.395Z,100677.81
2023-03-03T06:28:05.741Z,100686.09
2023-03-03T06:30:35.720Z,100683.69
2023-03-03T06:33:04.057Z,100686.59
2023-03-03T06:35:32.608Z,100688.44
2023-03-03T06:38:01.177Z,100687.66
2023-03-03T06:40:29.599Z,100687.66
2023-03-03T06:42:58.017Z,100690.09
2023-03-03T06:45:26.422Z,100694.59
2023-03-03T06:47:56.146Z,100699.66
2023-03-03T06:50:24.543Z,100694.69
2023-03-03T06:53:03.428Z,100704.28
2023-03-03T06:55:31.913Z,100691.00
2023-03-03T06:58:01.522Z,100694.66
2023-03-03T07:00:31.351Z,100696.75
2023-03-03T07:03:03.335Z,100691.50
2023-03-03T07:05:33.145Z,100692.06
2023-03-03T07:08:01.639Z,100688.34
2023-03-03T07:10:31.827Z,100691.78
2023-03-03T07:13:12.172Z,100689.69
2023-03-03T07:15:40.572Z,100689.34
2023-03-03T07:18:32.741Z,100679.56
2023-03-03T07:21:01.857Z,100685.16
2023-03-03T07:23:42.895Z,100682.50
2023-03-03T07:26:14.828Z,100685.75
2023-03-03T07:28:45.164Z,100673.50
2023-03-03T07:31:32.753Z,100674.56
2023-03-03T07:34:06.297Z,100672.69
2023-03-03T07:36:37.720Z,100670.56
2023-03-03T07:39:23.381Z,100672.44
2023-03-03T07:41:51.690Z,100673.78
2023-03-03T07:44:23.877Z,100670.56
2023-03-03T07:46:52.814Z,100673.50
2023-03-03T07:49:26.039Z,100666.84
2023-03-03T07:51:59.202Z,100664.47
2023-03-03T07:54:38.230Z,100663.97
2023-03-03T07:57:16.772Z,100660.75
2023-03-03T07:59:51.690Z,100657.56
2023-03-03T08:02:38.832Z,100650.66
2023-03-03T08:05:31.329Z,100652.75
2023-03-03T08:08:30.747Z,100650.31
2023-03-03T08:11:02.854Z,100647.16
2023-03-03T08:13:39.213Z,100656.75
2023-03-03T08:16:27.713Z,100653.28
2023-03-03T08:18:59.762Z,100641.00
2023-03-03T08:21:32.342Z,100647.94
2023-03-03T08:24:00.729Z,100640.22
2023-03-03T08:26:29.412Z,100640.94
2023-03-03T08:28:57.779Z,100648.34
2023-03-03T08:31:40.194Z,100647.66
2023-03-03T08:34:09.516Z,100639.25
2023-03-03T08:36:39.270Z,100643.50
2023-03-03T08:39:07.721Z,100638.78
2023-03-03T08:41:36.195Z,100640.53
2023-03-03T08:44:04.768Z,100646.72
2023-03-03T08:46:33.434Z,100649.59
2023-03-03T08:49:02.264Z,100645.63
2023-03-03T08:51:30.667Z,100642.78
2023-03-03T08:54:00.360Z,100641.22
2023-03-03T08:56:28.797Z,100645.56
2023-03-03T08:59:02.512Z,100655.84
2023-03-03T09:01:31.751Z,100652.06
2023-03-03T09:04:01.242Z,100649.84
2023-03-03T09:06:29.712Z,100650.81
2023-03-03T09:08:59.623Z,100657.25
2023-03-03T09:11:30.799Z,100655.28
2023-03-03T09:14:08.073Z,100641.25
2023-03-03T09:16:40.487Z,100641.84
2023-03-03T09:19:21.610Z,100642.63
2023-03-03T09:21:50.671Z,100633.03
2023-03-03T09:24:27.505Z,100631.88
2023-03-03T09:26:56.289Z,100636.66
2023-03-03T09:29:29.907Z,100630.19
2023-03-03T09:32:01.175Z,100630.00
2023-03-03T09:34:39.919Z,100626.31
2023-03-03T09:37:23.373Z,100622.09
2023-03-03T09:39:54.758Z,100618.66
2023-03-03T09:42:44.795Z,100622.56
2023-03-03T09:45:42.276Z,100617.00
2023-03-03T09:48:40.295Z,100617.09
2023-03-03T09:51:20.101Z,100612.00
2023-03-03T09:54:02.366Z,100612.81
2023-03-03T09:56:36.171Z,100602.84
2023-03-03T09:59:24.246Z,100595.72
2023-03-03T10:02:11.048Z,100591.31
2023-03-03T10:04:49.266Z,100585.56
2023-03-03T10:07:29.036Z,100586.63
2023-03-03T10:10:14.591Z,100578.72
2023-03-03T10:12:53.757Z,100574.88
2023-03-03T10:15:36.873Z,100583.84
2023-03-03T10:18:17.440Z,100570.22
2023-03-03T10:20:55.697Z,100562.75
2023-03-03T10:23:39.378Z,100561.38
2023-03-03T10:26:18.719Z,100557.34
2023-03-03T10:29:22.484Z,100556.69
2023-03-03T10:32:03.560Z,100550.47
2023-03-03T10:34:54.958Z,100555.91
2023-03-03T10:37:30.824Z,100556.47
2023-03-03T10:40:20.039Z,100557.28
2023-03-03T10:43:29.712Z,100544.91
2023-03-03T10:46:21.883Z,100542.09
2023-03-03T10:49:05.807Z,100545.25
2023-03-03T10:51:43.412Z,100543.59
2023-03-03T10:54:40.892Z,100542.66
2023-03-03T10:57:17.562Z,100545.56
2023-03-03T10:59:57.851Z,100544.09
2023-03-03T11:02:37.053Z,100545.97
2023-03-03T11:05:19.210Z,100540.41
2023-03-03T11:07:51.723Z,100527.91
2023-03-03T11:10:29.605Z,100518.63
2023-03-03T11:13:11.406Z,100514.66
2023-03-03T11:15:56.603Z,100503.78
2023-03-03T11:18:39.328Z,100503.16
2023-03-03T11:21:17.433Z,100497.03
2023-03-03T11:24:29.950Z,100498.88
2023-03-03T11:27:20.504Z,100488.94
2023-03-03T11:30:07.685Z,100474.91
2023-03-03T11:32:44.207Z,100466.53
2023-03-03T11:35:25.129Z,100476.50
2023-03-03T11:38:04.950Z,100474.09
2023-03-03T11:40:44.585Z,100470.66
2023-03-03T11:43:35.369Z,100473.16
2023-03-03T11:46:09.402Z,100469.59
2023-03-03T11:48:46.069Z,100470.06
2023-03-03T11:51:23.062Z,100456.50
2023-03-03T11:54:03.048Z,100452.25
2023-03-03T11:56:37.515Z,100457.81
2023-03-03T11:59:34.560Z,100461.50
2023-03-03T12:02:12.826Z,100457.66
2023-03-03T12:04:45.048Z,100463.94
2023-03-03T12:07:25.633Z,100465.75
2023-03-03T12:10:04.323Z,100463.19
2023-03-03T12:12:39.458Z,100462.88
2023-03-03T12:15:21.514Z,100463.97
2023-03-03T12:18:17.692Z,100455.41
2023-03-03T12:20:56.421Z,100449.84
2023-03-03T12:23:46.873Z,100455.28
2023-03-03T12:26:20.888Z,100456.72
2023-03-03T12:28:55.093Z,100466.09
2023-03-03T12:31:36.981Z,100468.47
2023-03-03T12:34:12.727Z,100455.63
2023-03-03T12:36:57.431Z,100448.19
2023-03-03T12:39:38.073Z,100454.19
2023-03-03T12:42:17.041Z,100455.00
2023-03-03T12:44:52.246Z,100459.78
2023-03-03T12:47:29.852Z,100460.72
2023-03-03T12:50:15.872Z,100460.63
2023-03-03T12:52:54.153Z,100455.66
2023-03-03T12:55:35.073Z,100458.88
2023-03-03T12:58:13.442Z,100452.97
2023-03-03T13:00:51.176Z,100453.28
2023-03-03T13:03:39.034Z,100445.66
2023-03-03T13:06:28.865Z,100447.34
2023-03-03T13:09:20.108Z,100441.31
2023-03-03T13:12:22.402Z,100440.22
2023-03-03T13:14:57.953Z,100447.69
2023-03-03T13:17:31.303Z,100447.19
2023-03-03T13:20:01.865Z,100448.41
2023-03-03T13:22:43.363Z,100447.56
2023-03-03T13:25:30.661Z,100444.22
2023-03-03T13:28:09.573Z,100447.00
2023-03-03T13:30:41.470Z,100437.03
2023-03-03T13:33:12.963Z,100436.31
2023-03-03T13:35:46.747Z,100436.41
2023-03-03T13:38:21.253Z,100435.63
2023-03-03T13:40:55.903Z,100438.03
2023-03-03T13:43:31.198Z,100432.50
2023-03-03T13:46:09.605Z,100431.38
2023-03-03T13:48:56.585Z,100430.34
2023-03-03T13:51:35.167Z,100437.28
2023-03-03T13:54:17.839Z,100429.41
2023-03-03T13:57:18.785Z,100428.50
2023-03-03T13:59:58.933Z,100421.97
2023-03-03T14:02:58.795Z,100424.41
2023-03-03T14:05:35.073Z,100424.78
2023-03-03T14:08:14.540Z,100427.13
2023-03-03T14:10:48.963Z,100425.16
2023-03-03T14:13:24.610Z,100421.78
2023-03-03T14:15:59.812Z,100428.38
2023-03-03T14:18:32.212Z,100422.19
2023-03-03T14:21:07.169Z,100428.84
2023-03-03T14:23:51.945Z,100430.50
2023-03-03T14:26:20.349Z,100425.75
2023-03-03T14:28:51.701Z,100433.69
2023-03-03T14:31:24.269Z,100423.88
2023-03-03T14:34:00.774Z,100427.63
2023-03-03T14:36:33.009Z,100427.69
2023-03-03T14:39:02.416Z,100425.00
2023-03-03T14:41:41.807Z,100430.88
2023-03-03T14:44:28.757Z,100429.09
2023-03-03T14:47:13.775Z,100430.97
2023-03-03T14:49:42.812Z,100433.31
2023-03-03T14:52:22.801Z,100431.19
2023-03-03T14:54:53.324Z,100434.94
2023-03-03T14:57:24.133Z,100434.72
2023-03-03T15:00:02.745Z,100434.44
2023-03-03T15:02:39.322Z,100439.75
2023-03-03T15:05:20.832Z,100436.28
2023-03-03T15:07:53.313Z,100431.78
2023-03-03T15:10:36.573Z,100435.25
2023-03-03T15:13:29.290Z,100432.31
2023-03-03T15:16:06.570Z,100436.59
2023-03-03T15:18:52.591Z,100441.13
2023-03-03T15:21:26.328Z,100437.59
2023-03-03T15:24:02.576Z,100430.78
2023-03-03T15:26:45.645Z,100436.94
2023-03-03T15:29:18.947Z,100432.94
2023-03-03T15:31:53.932Z,100443.84
2023-03-03T15:34:44.639Z,100443.84
2023-03-03T15:37:28.882Z,100446.53
2023-03-03T15:40:05.270Z,100447.84
2023-03-03T15:42:40.388Z,100441.94
2023-03-03T15:45:18.488Z,100449.13
2023-03-03T15:48:04.123Z,100450.19
2023-03-03T15:50:43.354Z,100447.25
2023-03-03T15:53:37.244Z,100457.38
2023-03-03T15:56:22.455Z,100447.84
2023-03-03T15:59:28.881Z,100444.59
2023-03-03T16:02:11.248Z,100441.16
2023-03-03T16:04:45.320Z,100449.16
2023-03-03T16:07:29.518Z,100444.88
2023-03-03T16:10:12.308Z,100448.88
2023-03-03T16:12:54.393Z,100457.63
2023-03-03T16:15:50.857Z,100464.84
2023-03-03T16:18:29.761Z,100469.91
2023-03-03T16:21:14.225Z,100474.16
2023-03-03T16:23:49.376Z,100479.69
2023-03-03T16:26:33.605Z,100479.44
2023-03-03T16:29:22.948Z,100474.41
2023-03-03T16:31:58.452Z,100487.41
2023-03-03T16:34:35.526Z,100479.22
2023-03-03T16:37:14.068Z,100489.06
2023-03-03T16:39:55.343Z,100489.59
2023-03-03T16:42:29.433Z,100489.59
2023-03-03T16:45:23.157Z,100489.31
2023-03-03T16:48:11.736Z,100493.84
2023-03-03T16:50:47.570Z,100491.19
2023-03-03T16:53:27.694Z,100496.22
2023-03-03T16:56:08.202Z,100500.75
2023-03-03T16:58:50.367Z,100505.00
2023-03-03T17:01:27.168Z,100506.34
2023-03-03T17:04:01.935Z,100506.06
2023-03-03T17:06:37.256Z,100511.38
2023-03-03T17:09:33.049Z,100509.50
2023-03-03T17:12:15.726Z,100511.66
2023-03-03T17:15:04.016Z,100502.34
2023-03-03T17:17:41.286Z,100503.13
2023-03-03T17:20:22.309Z,100508.19
2023-03-03T17:23:02.056Z,100516.44
2023-03-03T17:25:38.798Z,100515.09
2023-03-03T17:28:30.497Z,100518.81
2023-03-03T17:31:09.560Z,100518.53
2023-03-03T17:34:16.339Z,100514.81
2023-03-03T17:36:56.754Z,100521.19
2023-03-03T17:39:55.788Z,100514.81
2023-03-03T17:42:31.046Z,100519.34
2023-03-03T17:45:07.675Z,100520.41
2023-03-03T17:47:52.757Z,100517.50
2023-03-03T17:50:37.985Z,100520.41
2023-03-03T17:53:30.174Z,100516.16
2023-03-03T17:56:13.458Z,100530.50
2023-03-03T17:59:27.698Z,100529.97
2023-03-03T18:02:38.876Z,100539.28
2023-03-03T18:05:33.425Z,100536.34
2023-03-03T18:08:25.008Z,100531.81
2023-03-03T18:11:16.793Z,100532.88
2023-03-03T18:14:00.524Z,100536.88
2023-03-03T18:16:46.272Z,100539.81
2023-03-03T18:19:34.593Z,100535.03
2023-03-03T18:22:08.857Z,100528.09
2023-03-03T18:24:40.896Z,100534.25
2023-03-03T18:27:40.442Z,100535.84
2023-03-03T18:30:50.245Z,100538.75
2023-03-03T18:33:43.946Z,100533.69
2023-03-03T18:36:39.118Z,100533.69
2023-03-03T18:39:15.732Z,100537.41
2023-03-03T18:42:07.287Z,100539.00
2023-03-03T18:44:36.027Z,100545.13
2023-03-03T18:47:05.295Z,100538.47
2023-03-03T18:49:56.101Z,100548.56
2023-03-03T18:52:29.885Z,100547.22
2023-03-03T18:55:26.453Z,100562.91
2023-03-03T18:58:30.620Z,100554.44
2023-03-03T19:01:02.497Z,100554.94
2023-03-03T19:03:35.535Z,100554.16
2023-03-03T19:06:05.851Z,100572.44
2023-03-03T19:08:51.389Z,100569.78
2023-03-03T19:11:37.845Z,100569.81
2023-03-03T19:14:33.299Z,100555.72
2023-03-03T19:17:39.826Z,100566.09
2023-03-03T19:20:15.235Z,100567.66
2023-03-03T19:22:48.327Z,100559.19
2023-03-03T19:25:25.160Z,100558.66
2023-03-03T19:28:07.147Z,100564.50
2023-03-03T19:30:47.008Z,100565.56
2023-03-03T19:33:43.009Z,100560.25
2023-03-03T19:36:38.381Z,100562.38
2023-03-03T19:39:26.266Z,100563.97
2023-03-03T19:42:05.596Z,100569.03
2023-03-03T19:44:51.295Z,100565.59
2023-03-03T19:47:31.041Z,100565.06
2023-03-03T19:50:10.563Z,100565.59
2023-03-03T19:52:44.937Z,100566.63
2023-03-03T19:55:24.510Z,100576.22
2023-03-03T19:58:11.684Z,100571.44
2023-03-03T20:00:43.593Z,100562.94
2023-03-03T20:03:38.555Z,100561.88
2023-03-03T20:06:18.591Z,100568.22
2023-03-03T20:08:57.635Z,100569.31
2023-03-03T20:11:46.251Z,100569.84
2023-03-03T20:14:33.160Z,100566.91
2023-03-03T20:17:22.693Z,100559.47
2023-03-03T20:19:57.273Z,100561.59
2023-03-03T20:22:38.297Z,100569.03
2023-03-03T20:25:28.820Z,100569.56
2023-03-03T20:28:04.789Z,100575.66
2023-03-03T20:30:52.885Z,100576.22
2023-03-03T20:33:34.882Z,100576.72
2023-03-03T20:36:12.311Z,100574.59
2023-03-03T20:38:51.567Z,100579.13
2023-03-03T20:41:30.258Z,100574.63
2023-03-03T20:44:10.435Z,100579.41
2023-03-03T20:46:49.011Z,100580.47
2023-03-03T20:49:35.546Z,100569.84
2023-03-03T20:52:11.847Z,100573.56
2023-03-03T20:54:50.813Z,100570.63
2023-03-03T20:57:33.937Z,100570.09
2023-03-03T21:00:07.067Z,100576.47
2023-03-03T21:02:42.422Z,100572.50
2023-03-03T21:05:14.796Z,100586.84
2023-03-03T21:07:54.833Z,100576.22
2023-03-03T21:10:25.319Z,100573.56
2023-03-03T21:12:55.554Z,100573.81
2023-03-03T21:15:28.192Z,100570.09
2023-03-03T21:17:59.499Z,100564.53
2023-03-03T21:20:31.628Z,100559.75
2023-03-03T21:23:01.825Z,100559.75
2023-03-03T21:25:48.046Z,100547.50
2023-03-03T21:28:18.451Z,100549.38
2023-03-03T21:31:11.621Z,100553.63
2023-03-03T21:33:52.820Z,100558.94
2023-03-03T21:36:24.660Z,100562.66
2023-03-03T21:38:54.769Z,100557.06
2023-03-03T21:41:24.245Z,100554.41
2023-03-03T21:43:54.201Z,100556.03
2023-03-03T21:46:24.605Z,100562.38
2023-03-03T21:48:54.474Z,100556.81
2023-03-03T21:51:24.462Z,100558.66
2023-03-03T21:53:52.837Z,100565.06
2023-03-03T21:56:21.136Z,100565.59
2023-03-03T21:58:49.512Z,100568.50
2023-03-03T22:01:17.966Z,100575.16
2023-03-03T22:03:47.679Z,100572.50
2023-03-03T22:06:17.697Z,100568.25
2023-03-03T22:08:46.219Z,100560.00
2023-03-03T22:11:15.639Z,100560.81
2023-03-03T22:13:44.114Z,100564.25
2023-03-03T22:16:13.274Z,100564.53
2023-03-03T22:18:41.619Z,100569.31
2023-03-03T22:21:09.970Z,100560.81
2023-03-03T22:23:39.748Z,100557.63
2023-03-03T22:26:08.372Z,100560.53
2023-03-03T22:28:36.745Z,100561.31
2023-03-03T22:31:05.274Z,100559.19
2023-03-03T22:33:33.689Z,100556.00
2023-03-03T22:36:02.215Z,100553.91
2023-03-03T22:38:31.201Z,100548.59
2023-03-03T22:41:00.988Z,100541.16
2023-03-03T22:43:29.827Z,100546.44
2023-03-03T22:45:58.375Z,100540.59
2023-03-03T22:48:28.271Z,100542.47
2023-03-03T22:50:56.605Z,100543.53
2023-03-03T22:53:25.647Z,100541.66
2023-03-03T22:55:54.230Z,100549.63
2023-03-03T22:58:25.620Z,100554.41
2023-03-03T23:00:55.093Z,100563.19
2023-03-03T23:03:23.900Z,100554.69
2023-03-03T23:05:52.563Z,100569.03
2023-03-03T23:08:22.198Z,100563.72
2023-03-03T23:10:50.523Z,100564.78
2023-03-03T23:13:19.398Z,100564.25
2023-03-03T23:15:49.214Z,100564.53
2023-03-03T23:18:17.521Z,100560.00
2023-03-03T23:20:46.228Z,100550.16
2023-03-03T23:23:14.621Z,100545.41
2023-03-03T23:25:42.987Z,100546.19
2023-03-03T23:28:11.549Z,100552.53
2023-03-03T23:30:40.245Z,100551.22
2023-03-03T23:33:10.174Z,100554.16
2023-03-03T23:35:38.565Z,100556.00
2023-03-03T23:38:06.886Z,100554.94
2023-03-03T23:40:35.306Z,100554.69
2023-03-03T23:43:03.881Z,100548.84
2023-03-03T23:45:32.126Z,100550.69
2023-03-03T23:48:00.446Z,100553.63
2023-03-03T23:50:30.200Z,100560.78
2023-03-03T23:52:58.708Z,100562.38
2023-03-03T23:55:26.983Z,100558.41
2023-03-03T23:57:55.447Z,100568.00
